Date,TemperatureHighF,TemperatureAvgF,TemperatureLowF,DewpointHighF,DewpointAvgF,DewpointLowF,HumidityHigh,HumidityAvg,HumidityLow,PressureMaxIn,PressureMinIn,WindSpeedMaxMPH,WindSpeedAvgMPH,GustSpeedMaxMPH,PrecipitationSumIn
2013-1-28,54.1,44.5,38.7,51.0,39.5,34.7,89,83,67,29.70,28.88,12,0,12,0.08
2013-1-29,59.4,44.9,33.6,56.1,41.2,30.5,90,87,76,29.64,29.49,17,2,17,2.17
2013-1-30,33.6,25.8,16.5,30.7,16.4,2.4,92,69,47,29.82,29.40,12,1,12,0.16
2013-1-31,20.8,9.2,0.7,5.0,-7.4,-19.1,52,46,38,30.35,29.82,22,7,22,0.00
2013-2-1,24.8,9.1,-7.2,6.5,-10.5,-26.1,53,40,30,30.41,30.05,15,3,15,0.00
2013-2-2,29.1,23.7,20.7,14.4,6.2,-0.7,69,47,34,30.14,29.99,18,4,18,0.00
2013-2-3,38.5,26.4,19.0,23.0,8.2,2.7,80,47,30,30.17,29.85,22,4,22,0.00
2013-2-4,32.5,24.9,12.9,17.8,9.9,2.0,68,53,41,29.96,29.73,15,2,15,0.00
2013-2-5,45.3,30.9,19.0,22.3,17.2,9.9,76,58,37,30.08,29.82,16,2,16,0.24
2013-2-6,50.2,35.5,19.4,27.0,20.6,14.1,81,58,36,30.14,29.93,15,1,15,0.12
2013-2-7,40.3,36.1,30.7,36.1,29.7,22.5,85,78,61,30.14,29.88,16,2,16,1.54
2013-2-8,33.6,30.1,28.2,22.5,18.7,16.1,71,62,51,30.35,30.14,12,2,12,0.00
2013-2-9,37.9,32.5,28.9,25.2,20.6,18.2,74,62,45,30.29,29.91,16,3,16,0.12
2013-2-10,59.0,42.1,33.6,43.4,29.4,14.8,88,64,31,29.91,29.31,27,8,27,0.75
2013-2-11,41.4,34.1,28.8,17.2,13.7,11.0,53,43,36,30.11,29.61,30,11,30,0.00
2013-2-12,48.0,34.1,23.4,17.7,14.7,10.9,64,46,28,30.11,29.88,12,4,12,0.00
2013-2-13,51.3,36.9,22.1,21.4,17.3,12.8,75,47,27,29.88,29.70,14,1,14,0.00
2013-2-14,41.2,37.6,35.4,19.3,18.0,17.1,51,45,39,29.73,29.70,0,0,0,0.00
2013-2-17,35.2,34.7,34.3,15.2,14.6,14.1,45,43,42,29.76,29.73,0,0,0,0.00
2013-2-18,58.8,35.5,19.9,31.5,19.0,1.4,82,52,34,29.88,29.55,17,4,17,0.16
2013-2-19,27.1,19.0,11.7,1.0,-2.3,-7.0,46,39,32,30.32,29.88,25,9,25,0.00
2013-2-20,28.8,16.4,2.1,4.0,-4.9,-15.9,46,38,30,30.44,30.29,11,3,11,0.00
2013-2-21,27.0,23.5,18.1,21.6,11.0,3.6,81,60,43,30.32,29.79,10,4,10,0.00
2013-2-22,40.8,28.5,22.8,22.0,14.1,7.6,81,57,35,29.99,29.73,4,4,4,0.24
2013-2-23,42.1,27.0,17.8,12.9,8.1,3.8,58,46,30,29.99,29.91,4,4,4,0.04
2013-2-24,48.9,28.6,10.9,17.8,10.6,-0.6,72,49,28,30.05,29.96,4,4,4,0.12
2013-2-25,46.2,34.0,23.5,22.6,19.1,14.5,72,55,37,30.08,29.85,4,2,4,0.12
2013-2-26,36.7,33.3,31.5,28.1,25.1,19.4,84,72,54,29.85,29.58,11,0,11,0.31
2013-2-27,36.3,31.5,29.1,27.4,23.4,19.5,84,72,52,29.91,29.70,0,0,0,0.00
2013-2-28,38.1,30.3,24.8,21.1,16.2,13.1,72,56,40,30.11,29.91,0,0,0,0.00
2013-3-1,42.1,29.4,23.5,21.5,14.0,8.7,77,54,33,30.26,30.08,0,0,0,0.00
2013-3-2,36.3,23.0,10.2,9.8,5.0,-3.9,66,47,32,30.29,30.20,5,0,5,0.00
2013-3-3,45.3,29.8,15.1,14.9,11.0,3.0,63,47,29,30.20,29.96,0,0,0,0.00
2013-3-4,48.0,34.8,27.5,23.6,21.2,14.8,78,59,37,29.96,29.76,0,0,0,0.16
2013-3-5,38.3,31.6,27.9,26.2,17.8,10.5,85,58,35,30.20,29.91,0,0,0,0.04
2013-3-6,39.2,27.6,14.4,15.4,11.0,3.9,64,50,33,30.38,30.20,0,0,0,0.00
2013-3-7,42.4,26.1,10.2,15.9,10.9,1.1,74,54,32,30.38,30.26,9,0,9,0.04
2013-3-8,52.7,36.7,23.2,27.4,20.9,13.0,86,56,30,30.32,30.08,0,0,0,0.04
2013-3-9,45.7,39.7,36.9,41.9,33.5,24.0,87,79,54,30.08,29.67,0,0,0,4.21
2013-3-10,47.8,41.4,35.2,44.8,38.2,31.5,91,88,85,29.70,29.58,0,0,0,1.30
2013-3-11,35.2,31.5,24.6,31.5,21.4,10.4,89,67,48,29.93,29.64,0,0,0,0.00
2013-3-12,39.7,29.2,20.5,19.8,13.2,7.3,72,52,37,30.20,29.93,11,5,11,0.00
2013-3-13,27.3,25.3,23.2,8.3,6.9,5.3,49,45,42,30.23,30.20,11,11,11,0.00
2013-4-20,56.7,49.3,39.4,20.3,15.8,9.1,43,27,17,30.29,30.20,11,1,11,0.00
2013-4-21,41.4,40.6,39.4,20.3,19.7,18.8,44,43,42,30.26,30.23,7,1,7,0.00
2013-4-22,76.1,63.8,48.0,41.4,31.9,25.5,64,32,21,30.14,29.93,15,3,15,0.00
2013-4-23,53.1,39.3,34.5,43.0,27.0,17.5,84,62,43,30.08,29.96,13,5,13,0.43
2013-4-24,59.7,44.4,29.3,32.8,18.2,13.7,64,37,19,30.17,30.08,18,5,18,0.04
2013-4-25,66.4,50.4,33.1,33.9,23.9,18.5,74,40,17,30.29,30.11,15,3,15,0.00
2013-4-26,74.1,59.7,45.1,37.8,31.2,22.7,47,35,22,30.23,30.14,22,5,22,0.00
2013-4-27,54.5,46.2,40.1,36.7,34.3,32.8,76,64,47,30.23,30.17,7,0,7,0.00
2013-5-3,36.7,35.7,35.1,34.6,32.8,31.6,92,89,86,29.99,29.88,11,2,11,1.81
2013-5-4,68.5,53.9,36.7,49.9,44.0,34.6,93,72,36,30.02,29.79,7,0,7,0.55
2013-5-5,68.9,56.4,47.1,51.2,45.8,41.4,88,70,44,30.05,29.96,11,2,11,0.00
2013-5-6,81.3,62.2,50.2,47.4,41.5,30.1,84,53,20,30.08,29.96,8,1,8,0.00
2013-5-7,91.8,66.9,45.1,48.0,37.1,22.7,82,44,9,30.05,29.93,10,0,10,0.00
2013-5-8,90.0,65.9,48.2,51.0,43.3,30.2,79,50,13,29.99,29.91,12,0,12,0.04
2013-5-9,74.1,64.3,59.0,58.3,53.2,46.7,82,68,42,29.93,29.79,8,0,8,1.42
2013-5-10,70.5,55.7,46.0,50.5,43.9,37.0,85,66,34,29.99,29.85,13,1,13,0.08
2013-5-11,62.1,53.1,40.5,45.8,24.7,6.9,83,40,14,30.17,29.93,17,4,17,0.00
2013-5-12,66.7,49.6,32.5,25.0,17.6,8.4,57,32,12,30.23,30.11,12,1,12,0.00
2013-5-13,83.1,60.6,33.8,38.9,28.4,20.3,78,37,11,30.17,29.88,16,2,16,0.00
2013-5-14,100.0,78.1,52.0,52.8,42.5,35.3,74,33,16,29.88,29.64,17,2,17,0.00
2013-5-15,79.9,77.2,74.5,35.5,34.4,33.4,23,21,20,29.76,29.73,20,5,20,0.00
2013-5-19,64.0,63.4,62.6,57.8,57.4,56.7,81,81,80,29.76,29.64,0,0,0,0.32
2013-5-20,87.3,72.1,60.3,58.5,52.8,46.5,82,55,28,29.73,29.55,0,0,0,0.83
2013-5-21,83.1,69.0,58.1,58.4,47.5,39.6,83,51,24,29.70,29.61,0,0,0,0.00
2013-5-22,70.2,60.7,54.1,52.7,45.7,39.9,75,59,36,29.85,29.67,0,0,0,0.08
2013-5-23,75.4,62.1,55.2,49.0,40.2,29.7,79,48,21,30.23,29.85,0,0,0,0.00
2013-5-24,76.1,62.0,45.0,44.5,35.5,29.5,75,41,22,30.38,30.20,0,0,0,0.08
2013-5-25,60.1,55.5,50.9,50.3,43.8,37.9,86,66,49,30.32,30.14,0,0,0,4.88
2013-5-26,71.6,59.8,51.6,56.5,48.4,42.8,84,67,42,30.17,29.91,12,0,12,2.13
2013-5-27,76.6,65.6,58.6,59.7,55.8,51.2,85,73,42,29.99,29.70,11,0,11,1.10
2013-5-28,87.6,70.1,60.4,65.1,58.0,45.0,84,68,36,29.88,29.61,17,1,17,10.83
2013-5-29,90.7,74.7,61.0,62.6,57.6,54.1,85,59,32,29.85,29.70,17,3,17,0.55
2013-5-30,87.6,71.5,61.3,61.4,53.4,48.2,79,54,29,29.73,29.58,22,4,22,0.83
2013-5-31,82.2,69.4,59.2,60.5,53.5,46.2,82,60,32,29.76,29.64,16,2,16,0.04
2013-6-1,82.4,68.4,61.3,60.9,50.0,39.4,82,56,23,29.88,29.64,17,3,17,0.00
2013-6-2,67.5,59.1,48.2,50.3,39.7,33.6,79,50,33,30.05,29.88,12,1,12,0.00
2013-6-3,80.8,62.4,43.0,53.5,38.6,32.9,84,48,20,30.08,29.96,11,1,11,0.00
2013-6-4,72.0,63.0,54.1,54.1,46.5,41.2,72,56,42,30.11,29.96,8,0,8,0.08
2013-6-5,73.4,66.1,60.6,59.2,53.8,48.1,79,65,42,30.02,29.91,7,0,7,0.08
2013-6-6,78.3,65.9,54.7,56.9,45.8,38.8,81,52,27,29.93,29.88,10,1,10,0.00
2013-6-7,75.7,63.0,53.6,54.3,46.6,39.6,81,58,31,29.99,29.91,9,0,9,0.08
2013-7-8,78.4,78.3,78.1,66.4,66.2,66.0,67,66,66,29.96,29.96,0,0,0,0.00
2013-7-9,97.2,83.9,73.6,72.2,66.2,58.4,79,58,31,29.99,29.85,17,0,17,0.08
2013-7-10,90.3,80.1,64.6,72.2,53.7,41.7,78,44,21,30.05,29.88,12,1,12,0.00
2013-7-11,91.2,74.6,58.5,57.9,47.9,38.0,83,46,18,30.11,30.02,8,0,8,0.00
2013-7-12,64.8,62.0,59.7,53.3,52.7,52.2,77,72,65,30.08,30.05,0,0,0,0.00
2013-8-4,88.7,79.5,65.8,52.0,45.0,40.0,61,31,19,30.20,30.05,12,0,12,0.00
2013-8-5,88.0,74.8,64.4,64.1,58.2,52.0,78,58,37,30.08,29.82,8,0,8,0.00
2013-8-6,98.2,79.2,67.8,67.3,61.3,52.0,83,60,26,29.91,29.79,17,1,17,1.18
2013-8-7,90.9,76.5,66.9,69.1,59.0,49.9,83,59,29,29.99,29.79,12,0,12,0.08
2013-8-8,89.6,72.0,59.7,59.5,53.8,47.6,83,59,25,30.02,29.96,8,0,8,0.00